sensor_id;sensor_type;location;lat;lon;timestamp;P1;durP1;ratioP1;P2;durP2;ratioP2
23670;SDS011;12012;51.998;7.614;2023-10-09T00:00:56;10.05;;;4.20;;
23670;SDS011;12012;51.998;7.614;2023-10-09T00:03:43;7.78;;;3.40;;
23670;SDS011;12012;51.998;7.614;2023-10-09T00:06:09;7.07;;;3.75;;
23670;SDS011;12012;51.998;7.614;2023-10-09T00:08:38;9.70;;;4.30;;
23670;SDS011;12012;51.998;7.614;2023-10-09T00:11:09;7.60;;;3.90;;
23670;SDS011;12012;51.998;7.614;2023-10-09T00:13:40;7.20;;;3.45;;
23670;SDS011;12012;51.998;7.614;2023-10-09T00:16:27;8.02;;;4.05;;
23670;SDS011;12012;51.998;7.614;2023-10-09T00:19:05;13.55;;;5.85;;
23670;SDS011;12012;51.998;7.614;2023-10-09T00:21:51;6.82;;;4.05;;
23670;SDS011;12012;51.998;7.614;2023-10-09T00:24:20;14.55;;;5.95;;
23670;SDS011;12012;51.998;7.614;2023-10-09T00:26:49;13.68;;;6.68;;
23670;SDS011;12012;51.998;7.614;2023-10-09T00:29:36;9.65;;;5.75;;
23670;SDS011;12012;51.998;7.614;2023-10-09T00:32:09;14.65;;;7.45;;
23670;SDS011;12012;51.998;7.614;2023-10-09T00:34:58;10.90;;;5.35;;
23670;SDS011;12012;51.998;7.614;2023-10-09T00:37:44;11.45;;;6.38;;
23670;SDS011;12012;51.998;7.614;2023-10-09T00:40:10;8.40;;;4.55;;
23670;SDS011;12012;51.998;7.614;2023-10-09T00:42:45;11.15;;;6.00;;
23670;SDS011;12012;51.998;7.614;2023-10-09T00:45:12;9.20;;;5.30;;
23670;SDS011;12012;51.998;7.614;2023-10-09T00:47:49;13.15;;;7.30;;
23670;SDS011;12012;51.998;7.614;2023-10-09T00:50:15;12.68;;;6.40;;
23670;SDS011;12012;51.998;7.614;2023-10-09T00:52:42;9.55;;;5.35;;
23670;SDS011;12012;51.998;7.614;2023-10-09T00:55:26;13.95;;;6.00;;
23670;SDS011;12012;51.998;7.614;2023-10-09T00:58:02;12.30;;;7.10;;
23670;SDS011;12012;51.998;7.614;2023-10-09T01:00:34;12.15;;;6.57;;
23670;SDS011;12012;51.998;7.614;2023-10-09T01:03:10;11.73;;;6.22;;
23670;SDS011;12012;51.998;7.614;2023-10-09T01:05:43;9.52;;;5.80;;
23670;SDS011;12012;51.998;7.614;2023-10-09T01:08:28;10.18;;;6.13;;
23670;SDS011;12012;51.998;7.614;2023-10-09T01:11:15;19.30;;;9.48;;
23670;SDS011;12012;51.998;7.614;2023-10-09T01:13:47;12.10;;;6.95;;
23670;SDS011;12012;51.998;7.614;2023-10-09T01:16:13;11.50;;;5.53;;
23670;SDS011;12012;51.998;7.614;2023-10-09T01:18:45;16.10;;;6.95;;
23670;SDS011;12012;51.998;7.614;2023-10-09T01:21:16;14.27;;;7.82;;
23670;SDS011;12012;51.998;7.614;2023-10-09T01:23:43;9.55;;;6.63;;
23670;SDS011;12012;51.998;7.614;2023-10-09T01:26:31;10.80;;;6.45;;
23670;SDS011;12012;51.998;7.614;2023-10-09T01:29:12;8.10;;;6.07;;
23670;SDS011;12012;51.998;7.614;2023-10-09T01:31:44;13.80;;;6.85;;
23670;SDS011;12012;51.998;7.614;2023-10-09T01:34:23;9.32;;;5.75;;
23670;SDS011;12012;51.998;7.614;2023-10-09T01:36:52;9.95;;;5.47;;
23670;SDS011;12012;51.998;7.614;2023-10-09T01:39:25;11.57;;;7.05;;
23670;SDS011;12012;51.998;7.614;2023-10-09T01:41:55;11.90;;;5.82;;
23670;SDS011;12012;51.998;7.614;2023-10-09T01:44:25;14.05;;;7.53;;
23670;SDS011;12012;51.998;7.614;2023-10-09T01:46:54;12.07;;;6.47;;
23670;SDS011;12012;51.998;7.614;2023-10-09T01:49:22;13.20;;;7.13;;
23670;SDS011;12012;51.998;7.614;2023-10-09T01:51:55;12.07;;;7.43;;
23670;SDS011;12012;51.998;7.614;2023-10-09T01:54:23;11.48;;;7.05;;
23670;SDS011;12012;51.998;7.614;2023-10-09T01:57:06;14.70;;;8.10;;
23670;SDS011;12012;51.998;7.614;2023-10-09T01:59:37;18.10;;;8.90;;
23670;SDS011;12012;51.998;7.614;2023-10-09T02:04:51;16.83;;;9.48;;
23670;SDS011;12012;51.998;7.614;2023-10-09T02:07:35;21.92;;;11.48;;
23670;SDS011;12012;51.998;7.614;2023-10-09T02:10:17;15.43;;;7.80;;
23670;SDS011;12012;51.998;7.614;2023-10-09T02:12:51;13.93;;;7.60;;
23670;SDS011;12012;51.998;7.614;2023-10-09T02:15:29;17.52;;;9.50;;
23670;SDS011;12012;51.998;7.614;2023-10-09T02:18:17;15.05;;;8.60;;
23670;SDS011;12012;51.998;7.614;2023-10-09T02:23:28;24.40;;;12.65;;
23670;SDS011;12012;51.998;7.614;2023-10-09T02:26:04;17.38;;;10.63;;
23670;SDS011;12012;51.998;7.614;2023-10-09T02:28:31;16.55;;;9.70;;
23670;SDS011;12012;51.998;7.614;2023-10-09T02:31:00;19.88;;;10.38;;
23670;SDS011;12012;51.998;7.614;2023-10-09T02:33:34;23.17;;;13.57;;
23670;SDS011;12012;51.998;7.614;2023-10-09T02:36:01;25.88;;;13.10;;
23670;SDS011;12012;51.998;7.614;2023-10-09T02:38:30;20.00;;;11.15;;
23670;SDS011;12012;51.998;7.614;2023-10-09T02:41:00;24.27;;;13.52;;
23670;SDS011;12012;51.998;7.614;2023-10-09T02:43:29;18.38;;;9.77;;
23670;SDS011;12012;51.998;7.614;2023-10-09T02:46:14;25.58;;;14.23;;
23670;SDS011;12012;51.998;7.614;2023-10-09T02:51:21;30.35;;;17.80;;
23670;SDS011;12012;51.998;7.614;2023-10-09T02:56:21;23.25;;;13.55;;
23670;SDS011;12012;51.998;7.614;2023-10-09T02:58:55;27.75;;;15.68;;
23670;SDS011;12012;51.998;7.614;2023-10-09T03:01:37;33.25;;;18.85;;
23670;SDS011;12012;51.998;7.614;2023-10-09T03:04:04;41.10;;;21.02;;
23670;SDS011;12012;51.998;7.614;2023-10-09T03:06:31;31.58;;;17.75;;
23670;SDS011;12012;51.998;7.614;2023-10-09T03:08:59;26.27;;;16.60;;
23670;SDS011;12012;51.998;7.614;2023-10-09T03:11:25;31.77;;;18.42;;
23670;SDS011;12012;51.998;7.614;2023-10-09T03:13:52;30.90;;;16.60;;
23670;SDS011;12012;51.998;7.614;2023-10-09T03:16:18;36.75;;;19.60;;
23670;SDS011;12012;51.998;7.614;2023-10-09T03:18:46;30.38;;;17.75;;
23670;SDS011;12012;51.998;7.614;2023-10-09T03:21:14;38.22;;;22.05;;
23670;SDS011;12012;51.998;7.614;2023-10-09T03:23:40;39.95;;;22.30;;
23670;SDS011;12012;51.998;7.614;2023-10-09T03:26:06;33.45;;;19.00;;
23670;SDS011;12012;51.998;7.614;2023-10-09T03:28:33;37.65;;;22.05;;
23670;SDS011;12012;51.998;7.614;2023-10-09T03:30:59;34.20;;;18.60;;
23670;SDS011;12012;51.998;7.614;2023-10-09T03:33:27;28.27;;;16.55;;
23670;SDS011;12012;51.998;7.614;2023-10-09T03:35:58;37.60;;;23.13;;
23670;SDS011;12012;51.998;7.614;2023-10-09T03:38:24;38.85;;;23.27;;
23670;SDS011;12012;51.998;7.614;2023-10-09T03:40:54;34.85;;;21.17;;
23670;SDS011;12012;51.998;7.614;2023-10-09T03:43:20;32.58;;;18.02;;
23670;SDS011;12012;51.998;7.614;2023-10-09T03:45:46;32.72;;;20.00;;
23670;SDS011;12012;51.998;7.614;2023-10-09T03:48:18;37.45;;;21.73;;
23670;SDS011;12012;51.998;7.614;2023-10-09T03:50:52;40.58;;;22.88;;
23670;SDS011;12012;51.998;7.614;2023-10-09T03:53:33;41.20;;;24.23;;
23670;SDS011;12012;51.998;7.614;2023-10-09T03:56:04;39.65;;;22.08;;
23670;SDS011;12012;51.998;7.614;2023-10-09T03:58:37;32.55;;;18.70;;
23670;SDS011;12012;51.998;7.614;2023-10-09T04:01:07;39.13;;;23.20;;
23670;SDS011;12012;51.998;7.614;2023-10-09T04:03:34;41.38;;;24.27;;
23670;SDS011;12012;51.998;7.614;2023-10-09T04:06:01;42.28;;;22.88;;
23670;SDS011;12012;51.998;7.614;2023-10-09T04:08:28;32.10;;;19.83;;
23670;SDS011;12012;51.998;7.614;2023-10-09T04:10:55;35.95;;;20.40;;
23670;SDS011;12012;51.998;7.614;2023-10-09T04:13:27;41.63;;;24.55;;
23670;SDS011;12012;51.998;7.614;2023-10-09T04:16:02;44.05;;;24.45;;
23670;SDS011;12012;51.998;7.614;2023-10-09T04:18:35;39.65;;;26.17;;
23670;SDS011;12012;51.998;7.614;2023-10-09T04:21:04;41.78;;;24.25;;
23670;SDS011;12012;51.998;7.614;2023-10-09T04:23:59;31.25;;;19.95;;
23670;SDS011;12012;51.998;7.614;2023-10-09T04:26:39;37.47;;;20.88;;
23670;SDS011;12012;51.998;7.614;2023-10-09T04:29:12;33.65;;;18.77;;
23670;SDS011;12012;51.998;7.614;2023-10-09T04:32:02;39.85;;;22.40;;
23670;SDS011;12012;51.998;7.614;2023-10-09T04:34:32;45.47;;;25.33;;
23670;SDS011;12012;51.998;7.614;2023-10-09T04:37:06;33.72;;;20.65;;
23670;SDS011;12012;51.998;7.614;2023-10-09T04:39:38;47.22;;;25.98;;
23670;SDS011;12012;51.998;7.614;2023-10-09T04:42:11;45.67;;;25.80;;
23670;SDS011;12012;51.998;7.614;2023-10-09T04:44:48;40.58;;;25.08;;
23670;SDS011;12012;51.998;7.614;2023-10-09T04:47:43;42.47;;;26.38;;
23670;SDS011;12012;51.998;7.614;2023-10-09T04:50:22;39.15;;;20.92;;
23670;SDS011;12012;51.998;7.614;2023-10-09T04:53:09;50.65;;;26.85;;
23670;SDS011;12012;51.998;7.614;2023-10-09T04:55:40;39.83;;;23.17;;
23670;SDS011;12012;51.998;7.614;2023-10-09T04:58:09;42.97;;;23.65;;
23670;SDS011;12012;51.998;7.614;2023-10-09T05:00:38;43.88;;;26.30;;
23670;SDS011;12012;51.998;7.614;2023-10-09T05:03:07;41.92;;;24.48;;
23670;SDS011;12012;51.998;7.614;2023-10-09T05:05:36;36.20;;;22.85;;
23670;SDS011;12012;51.998;7.614;2023-10-09T05:11:06;43.88;;;26.85;;
23670;SDS011;12012;51.998;7.614;2023-10-09T05:13:41;45.40;;;25.45;;
23670;SDS011;12012;51.998;7.614;2023-10-09T05:16:16;42.20;;;24.92;;
23670;SDS011;12012;51.998;7.614;2023-10-09T05:18:52;48.88;;;27.90;;
23670;SDS011;12012;51.998;7.614;2023-10-09T05:21:31;37.63;;;21.67;;
23670;SDS011;12012;51.998;7.614;2023-10-09T05:24:09;34.85;;;20.63;;
23670;SDS011;12012;51.998;7.614;2023-10-09T05:26:39;52.85;;;26.13;;
23670;SDS011;12012;51.998;7.614;2023-10-09T05:29:25;45.20;;;26.33;;
23670;SDS011;12012;51.998;7.614;2023-10-09T05:31:54;41.28;;;26.05;;
23670;SDS011;12012;51.998;7.614;2023-10-09T05:34:39;49.58;;;28.60;;
23670;SDS011;12012;51.998;7.614;2023-10-09T05:37:28;33.50;;;21.05;;
23670;SDS011;12012;51.998;7.614;2023-10-09T05:40:05;48.15;;;27.60;;
23670;SDS011;12012;51.998;7.614;2023-10-09T05:42:44;34.22;;;22.00;;
23670;SDS011;12012;51.998;7.614;2023-10-09T05:45:11;35.40;;;22.85;;
23670;SDS011;12012;51.998;7.614;2023-10-09T05:47:56;35.72;;;21.50;;
23670;SDS011;12012;51.998;7.614;2023-10-09T05:50:24;32.17;;;18.35;;
23670;SDS011;12012;51.998;7.614;2023-10-09T05:52:55;35.22;;;19.90;;
23670;SDS011;12012;51.998;7.614;2023-10-09T05:55:22;27.00;;;16.25;;
23670;SDS011;12012;51.998;7.614;2023-10-09T06:00:35;28.33;;;16.95;;
23670;SDS011;12012;51.998;7.614;2023-10-09T06:03:19;40.65;;;25.63;;
23670;SDS011;12012;51.998;7.614;2023-10-09T06:05:48;30.33;;;18.15;;
23670;SDS011;12012;51.998;7.614;2023-10-09T06:08:28;41.83;;;24.70;;
23670;SDS011;12012;51.998;7.614;2023-10-09T06:11:09;59.47;;;33.47;;
23670;SDS011;12012;51.998;7.614;2023-10-09T06:13:55;42.75;;;24.92;;
23670;SDS011;12012;51.998;7.614;2023-10-09T06:16:27;39.90;;;23.95;;
23670;SDS011;12012;51.998;7.614;2023-10-09T06:19:12;44.75;;;25.65;;
23670;SDS011;12012;51.998;7.614;2023-10-09T06:21:59;33.30;;;20.92;;
23670;SDS011;12012;51.998;7.614;2023-10-09T06:24:37;32.25;;;19.23;;
23670;SDS011;12012;51.998;7.614;2023-10-09T06:27:19;39.55;;;25.65;;
23670;SDS011;12012;51.998;7.614;2023-10-09T06:32:49;38.50;;;23.48;;
23670;SDS011;12012;51.998;7.614;2023-10-09T06:35:44;34.28;;;22.27;;
23670;SDS011;12012;51.998;7.614;2023-10-09T06:38:18;39.97;;;23.73;;
23670;SDS011;12012;51.998;7.614;2023-10-09T06:40:49;48.70;;;26.52;;
23670;SDS011;12012;51.998;7.614;2023-10-09T06:43:34;39.35;;;25.40;;
23670;SDS011;12012;51.998;7.614;2023-10-09T06:46:01;46.15;;;30.05;;
23670;SDS011;12012;51.998;7.614;2023-10-09T06:48:46;51.30;;;31.52;;
23670;SDS011;12012;51.998;7.614;2023-10-09T06:51:21;36.28;;;22.33;;
23670;SDS011;12012;51.998;7.614;2023-10-09T06:53:50;41.50;;;25.20;;
23670;SDS011;12012;51.998;7.614;2023-10-09T06:56:22;29.52;;;19.50;;
23670;SDS011;12012;51.998;7.614;2023-10-09T06:58:52;36.60;;;23.70;;
23670;SDS011;12012;51.998;7.614;2023-10-09T07:01:22;33.97;;;21.50;;
23670;SDS011;12012;51.998;7.614;2023-10-09T07:04:07;37.15;;;22.73;;
23670;SDS011;12012;51.998;7.614;2023-10-09T07:06:52;49.85;;;30.70;;
23670;SDS011;12012;51.998;7.614;2023-10-09T07:09:18;48.08;;;32.47;;
23670;SDS011;12012;51.998;7.614;2023-10-09T07:11:48;32.63;;;22.17;;
23670;SDS011;12012;51.998;7.614;2023-10-09T07:14:18;41.33;;;24.55;;
23670;SDS011;12012;51.998;7.614;2023-10-09T07:17:17;41.35;;;25.05;;
23670;SDS011;12012;51.998;7.614;2023-10-09T07:19:58;43.10;;;26.87;;
23670;SDS011;12012;51.998;7.614;2023-10-09T07:22:41;43.08;;;25.80;;
23670;SDS011;12012;51.998;7.614;2023-10-09T07:25:21;46.78;;;29.70;;
23670;SDS011;12012;51.998;7.614;2023-10-09T07:28:06;36.05;;;22.60;;
23670;SDS011;12012;51.998;7.614;2023-10-09T07:30:54;42.97;;;28.08;;
23670;SDS011;12012;51.998;7.614;2023-10-09T07:33:23;42.60;;;26.02;;
23670;SDS011;12012;51.998;7.614;2023-10-09T07:36:00;51.03;;;28.85;;
23670;SDS011;12012;51.998;7.614;2023-10-09T07:38:31;29.95;;;19.35;;
23670;SDS011;12012;51.998;7.614;2023-10-09T07:41:09;38.90;;;25.75;;
23670;SDS011;12012;51.998;7.614;2023-10-09T07:43:36;44.20;;;29.60;;
23670;SDS011;12012;51.998;7.614;2023-10-09T07:46:09;33.42;;;21.60;;
23670;SDS011;12012;51.998;7.614;2023-10-09T07:49:06;33.47;;;20.33;;
23670;SDS011;12012;51.998;7.614;2023-10-09T07:51:37;33.58;;;20.05;;
23670;SDS011;12012;51.998;7.614;2023-10-09T07:54:04;34.97;;;22.38;;
23670;SDS011;12012;51.998;7.614;2023-10-09T07:56:36;39.42;;;24.80;;
23670;SDS011;12012;51.998;7.614;2023-10-09T07:59:15;27.52;;;17.55;;
23670;SDS011;12012;51.998;7.614;2023-10-09T08:01:49;40.63;;;25.90;;
23670;SDS011;12012;51.998;7.614;2023-10-09T08:04:19;27.92;;;17.77;;
23670;SDS011;12012;51.998;7.614;2023-10-09T08:07:02;43.60;;;26.77;;
23670;SDS011;12012;51.998;7.614;2023-10-09T08:09:57;30.75;;;21.52;;
23670;SDS011;12012;51.998;7.614;2023-10-09T08:12:41;25.25;;;16.70;;
23670;SDS011;12012;51.998;7.614;2023-10-09T08:15:45;35.30;;;21.75;;
23670;SDS011;12012;51.998;7.614;2023-10-09T08:18:17;30.90;;;19.05;;
23670;SDS011;12012;51.998;7.614;2023-10-09T08:20:56;29.55;;;20.20;;
23670;SDS011;12012;51.998;7.614;2023-10-09T08:23:22;38.72;;;23.80;;
23670;SDS011;12012;51.998;7.614;2023-10-09T08:25:58;33.55;;;20.80;;
23670;SDS011;12012;51.998;7.614;2023-10-09T08:28:37;34.33;;;23.85;;
23670;SDS011;12012;51.998;7.614;2023-10-09T08:31:13;28.25;;;18.23;;
23670;SDS011;12012;51.998;7.614;2023-10-09T08:33:58;41.67;;;26.90;;
23670;SDS011;12012;51.998;7.614;2023-10-09T08:36:24;39.53;;;25.13;;
23670;SDS011;12012;51.998;7.614;2023-10-09T08:38:53;32.65;;;21.40;;
23670;SDS011;12012;51.998;7.614;2023-10-09T08:41:33;39.38;;;25.30;;
23670;SDS011;12012;51.998;7.614;2023-10-09T08:43:58;33.13;;;21.45;;
23670;SDS011;12012;51.998;7.614;2023-10-09T08:46:28;31.90;;;21.65;;
23670;SDS011;12012;51.998;7.614;2023-10-09T08:48:58;32.50;;;21.13;;
23670;SDS011;12012;51.998;7.614;2023-10-09T08:51:25;28.65;;;18.52;;
23670;SDS011;12012;51.998;7.614;2023-10-09T08:53:52;40.08;;;24.48;;
23670;SDS011;12012;51.998;7.614;2023-10-09T08:56:19;32.83;;;23.95;;
23670;SDS011;12012;51.998;7.614;2023-10-09T09:01:19;25.98;;;16.92;;
23670;SDS011;12012;51.998;7.614;2023-10-09T09:03:46;29.60;;;19.35;;
23670;SDS011;12012;51.998;7.614;2023-10-09T09:06:13;29.85;;;18.98;;
23670;SDS011;12012;51.998;7.614;2023-10-09T09:08:39;27.20;;;17.27;;
23670;SDS011;12012;51.998;7.614;2023-10-09T09:11:09;28.00;;;16.60;;
23670;SDS011;12012;51.998;7.614;2023-10-09T09:16:34;26.58;;;16.00;;
23670;SDS011;12012;51.998;7.614;2023-10-09T09:19:05;33.33;;;22.95;;
23670;SDS011;12012;51.998;7.614;2023-10-09T09:21:34;32.03;;;21.88;;
23670;SDS011;12012;51.998;7.614;2023-10-09T09:24:03;25.88;;;18.02;;
23670;SDS011;12012;51.998;7.614;2023-10-09T09:26:42;26.27;;;18.10;;
23670;SDS011;12012;51.998;7.614;2023-10-09T09:29:14;25.85;;;17.52;;
23670;SDS011;12012;51.998;7.614;2023-10-09T09:31:54;37.97;;;23.88;;
23670;SDS011;12012;51.998;7.614;2023-10-09T09:34:50;27.98;;;17.55;;
23670;SDS011;12012;51.998;7.614;2023-10-09T09:37:20;33.97;;;21.77;;
23670;SDS011;12012;51.998;7.614;2023-10-09T09:39:49;31.92;;;20.25;;
23670;SDS011;12012;51.998;7.614;2023-10-09T09:42:17;30.35;;;18.98;;
23670;SDS011;12012;51.998;7.614;2023-10-09T09:44:49;26.77;;;18.02;;
23670;SDS011;12012;51.998;7.614;2023-10-09T09:47:16;27.38;;;17.65;;
23670;SDS011;12012;51.998;7.614;2023-10-09T09:49:48;25.58;;;17.50;;
23670;SDS011;12012;51.998;7.614;2023-10-09T09:52:17;33.10;;;21.80;;
23670;SDS011;12012;51.998;7.614;2023-10-09T09:54:43;28.45;;;20.35;;
23670;SDS011;12012;51.998;7.614;2023-10-09T09:57:09;33.20;;;21.08;;
23670;SDS011;12012;51.998;7.614;2023-10-09T09:59:39;27.02;;;17.65;;
23670;SDS011;12012;51.998;7.614;2023-10-09T10:02:05;31.27;;;21.20;;
23670;SDS011;12012;51.998;7.614;2023-10-09T10:04:36;29.55;;;19.98;;
23670;SDS011;12012;51.998;7.614;2023-10-09T10:07:05;37.00;;;23.73;;
23670;SDS011;12012;51.998;7.614;2023-10-09T10:09:37;30.98;;;20.00;;
23670;SDS011;12012;51.998;7.614;2023-10-09T10:12:04;28.88;;;20.38;;
23670;SDS011;12012;51.998;7.614;2023-10-09T10:17:24;34.35;;;22.05;;
23670;SDS011;12012;51.998;7.614;2023-10-09T10:22:42;33.35;;;22.83;;
23670;SDS011;12012;51.998;7.614;2023-10-09T10:28:16;30.85;;;22.42;;
23670;SDS011;12012;51.998;7.614;2023-10-09T10:31:07;33.33;;;22.50;;
23670;SDS011;12012;51.998;7.614;2023-10-09T10:36:23;31.63;;;20.85;;
23670;SDS011;12012;51.998;7.614;2023-10-09T10:39:01;27.23;;;18.70;;
23670;SDS011;12012;51.998;7.614;2023-10-09T10:41:36;29.27;;;20.45;;
23670;SDS011;12012;51.998;7.614;2023-10-09T10:44:28;30.35;;;20.17;;
23670;SDS011;12012;51.998;7.614;2023-10-09T10:47:05;30.40;;;19.77;;
23670;SDS011;12012;51.998;7.614;2023-10-09T10:49:46;32.25;;;19.58;;
23670;SDS011;12012;51.998;7.614;2023-10-09T10:52:21;29.98;;;20.27;;
23670;SDS011;12012;51.998;7.614;2023-10-09T10:58:17;28.95;;;18.95;;
23670;SDS011;12012;51.998;7.614;2023-10-09T11:00:53;30.42;;;19.13;;
23670;SDS011;12012;51.998;7.614;2023-10-09T11:03:22;28.48;;;19.08;;
23670;SDS011;12012;51.998;7.614;2023-10-09T11:05:54;28.67;;;19.00;;
23670;SDS011;12012;51.998;7.614;2023-10-09T11:08:24;30.58;;;21.15;;
23670;SDS011;12012;51.998;7.614;2023-10-09T11:11:12;28.27;;;18.55;;
23670;SDS011;12012;51.998;7.614;2023-10-09T11:13:41;31.00;;;20.33;;
23670;SDS011;12012;51.998;7.614;2023-10-09T11:16:27;27.85;;;20.52;;
23670;SDS011;12012;51.998;7.614;2023-10-09T11:19:06;29.38;;;19.35;;
23670;SDS011;12012;51.998;7.614;2023-10-09T11:21:52;28.70;;;19.42;;
23670;SDS011;12012;51.998;7.614;2023-10-09T11:24:33;27.20;;;20.07;;
23670;SDS011;12012;51.998;7.614;2023-10-09T11:27:00;28.25;;;19.92;;
23670;SDS011;12012;51.998;7.614;2023-10-09T11:29:49;30.60;;;20.75;;
23670;SDS011;12012;51.998;7.614;2023-10-09T11:34:44;30.45;;;20.20;;
23670;SDS011;12012;51.998;7.614;2023-10-09T11:37:17;31.67;;;20.15;;
23670;SDS011;12012;51.998;7.614;2023-10-09T11:39:54;26.08;;;17.58;;
23670;SDS011;12012;51.998;7.614;2023-10-09T11:42:21;26.83;;;18.10;;
23670;SDS011;12012;51.998;7.614;2023-10-09T11:45:07;28.55;;;19.63;;
23670;SDS011;12012;51.998;7.614;2023-10-09T11:47:47;28.48;;;19.00;;
23670;SDS011;12012;51.998;7.614;2023-10-09T11:55:37;32.53;;;20.10;;
23670;SDS011;12012;51.998;7.614;2023-10-09T11:58:03;30.65;;;18.52;;
23670;SDS011;12012;51.998;7.614;2023-10-09T12:00:30;29.77;;;18.50;;
23670;SDS011;12012;51.998;7.614;2023-10-09T12:03:07;23.70;;;16.50;;
23670;SDS011;12012;51.998;7.614;2023-10-09T12:05:34;25.33;;;16.70;;
23670;SDS011;12012;51.998;7.614;2023-10-09T12:07:59;30.58;;;19.60;;
23670;SDS011;12012;51.998;7.614;2023-10-09T12:10:26;33.50;;;21.42;;
23670;SDS011;12012;51.998;7.614;2023-10-09T12:12:52;22.75;;;14.63;;
23670;SDS011;12012;51.998;7.614;2023-10-09T12:15:18;32.40;;;19.48;;
23670;SDS011;12012;51.998;7.614;2023-10-09T12:17:45;33.35;;;19.55;;
23670;SDS011;12012;51.998;7.614;2023-10-09T12:20:16;29.48;;;17.95;;
23670;SDS011;12012;51.998;7.614;2023-10-09T12:23:00;31.27;;;18.38;;
23670;SDS011;12012;51.998;7.614;2023-10-09T12:25:30;25.08;;;15.38;;
23670;SDS011;12012;51.998;7.614;2023-10-09T12:28:00;25.88;;;17.23;;
23670;SDS011;12012;51.998;7.614;2023-10-09T12:30:30;24.92;;;16.02;;
23670;SDS011;12012;51.998;7.614;2023-10-09T12:32:56;27.15;;;16.98;;
23670;SDS011;12012;51.998;7.614;2023-10-09T12:35:25;26.58;;;15.15;;
23670;SDS011;12012;51.998;7.614;2023-10-09T12:37:52;28.05;;;16.90;;
23670;SDS011;12012;51.998;7.614;2023-10-09T12:40:19;28.30;;;16.80;;
23670;SDS011;12012;51.998;7.614;2023-10-09T12:42:54;26.48;;;16.48;;
23670;SDS011;12012;51.998;7.614;2023-10-09T12:45:21;30.30;;;16.60;;
23670;SDS011;12012;51.998;7.614;2023-10-09T12:47:55;23.15;;;16.48;;
23670;SDS011;12012;51.998;7.614;2023-10-09T12:50:26;28.60;;;16.77;;
23670;SDS011;12012;51.998;7.614;2023-10-09T12:52:54;28.00;;;15.55;;
23670;SDS011;12012;51.998;7.614;2023-10-09T12:55:34;26.88;;;16.52;;
23670;SDS011;12012;51.998;7.614;2023-10-09T12:58:09;24.98;;;17.00;;
23670;SDS011;12012;51.998;7.614;2023-10-09T13:00:41;27.15;;;16.05;;
23670;SDS011;12012;51.998;7.614;2023-10-09T13:03:13;26.80;;;17.83;;
23670;SDS011;12012;51.998;7.614;2023-10-09T13:08:26;27.63;;;16.98;;
23670;SDS011;12012;51.998;7.614;2023-10-09T13:11:06;34.08;;;17.08;;
23670;SDS011;12012;51.998;7.614;2023-10-09T13:13:40;30.58;;;17.13;;
23670;SDS011;12012;51.998;7.614;2023-10-09T13:16:10;29.98;;;16.92;;
23670;SDS011;12012;51.998;7.614;2023-10-09T13:18:49;26.00;;;17.00;;
23670;SDS011;12012;51.998;7.614;2023-10-09T13:21:23;28.73;;;16.77;;
23670;SDS011;12012;51.998;7.614;2023-10-09T13:23:57;28.08;;;16.90;;
23670;SDS011;12012;51.998;7.614;2023-10-09T13:26:23;32.00;;;16.45;;
23670;SDS011;12012;51.998;7.614;2023-10-09T13:28:53;27.05;;;16.60;;
23670;SDS011;12012;51.998;7.614;2023-10-09T13:31:20;26.13;;;15.82;;
23670;SDS011;12012;51.998;7.614;2023-10-09T13:33:48;19.65;;;11.98;;
23670;SDS011;12012;51.998;7.614;2023-10-09T13:36:14;26.25;;;17.00;;
23670;SDS011;12012;51.998;7.614;2023-10-09T13:38:47;27.57;;;15.17;;
23670;SDS011;12012;51.998;7.614;2023-10-09T13:41:12;27.42;;;16.70;;
23670;SDS011;12012;51.998;7.614;2023-10-09T13:43:39;28.98;;;16.88;;
23670;SDS011;12012;51.998;7.614;2023-10-09T13:46:06;25.35;;;15.18;;
23670;SDS011;12012;51.998;7.614;2023-10-09T13:48:33;27.70;;;16.38;;
23670;SDS011;12012;51.998;7.614;2023-10-09T13:51:12;27.83;;;15.85;;
23670;SDS011;12012;51.998;7.614;2023-10-09T13:53:45;26.42;;;13.57;;
23670;SDS011;12012;51.998;7.614;2023-10-09T13:56:15;22.63;;;15.40;;
23670;SDS011;12012;51.998;7.614;2023-10-09T13:58:46;28.60;;;15.55;;
23670;SDS011;12012;51.998;7.614;2023-10-09T14:01:19;29.17;;;15.35;;
23670;SDS011;12012;51.998;7.614;2023-10-09T14:03:57;28.50;;;14.87;;
23670;SDS011;12012;51.998;7.614;2023-10-09T14:06:24;26.42;;;15.55;;
23670;SDS011;12012;51.998;7.614;2023-10-09T14:09:00;23.48;;;15.52;;
23670;SDS011;12012;51.998;7.614;2023-10-09T14:11:31;29.90;;;15.65;;
23670;SDS011;12012;51.998;7.614;2023-10-09T14:13:57;24.17;;;13.20;;
23670;SDS011;12012;51.998;7.614;2023-10-09T14:16:26;25.88;;;14.35;;
23670;SDS011;12012;51.998;7.614;2023-10-09T14:18:55;29.67;;;13.63;;
23670;SDS011;12012;51.998;7.614;2023-10-09T14:21:26;30.63;;;15.77;;
23670;SDS011;12012;51.998;7.614;2023-10-09T14:23:55;21.65;;;14.38;;
23670;SDS011;12012;51.998;7.614;2023-10-09T14:26:26;20.30;;;14.02;;
23670;SDS011;12012;51.998;7.614;2023-10-09T14:28:53;24.33;;;12.77;;
23670;SDS011;12012;51.998;7.614;2023-10-09T14:31:21;20.92;;;13.02;;
23670;SDS011;12012;51.998;7.614;2023-10-09T14:33:55;23.35;;;12.82;;
23670;SDS011;12012;51.998;7.614;2023-10-09T14:36:21;17.15;;;10.15;;
23670;SDS011;12012;51.998;7.614;2023-10-09T14:38:51;22.88;;;13.02;;
23670;SDS011;12012;51.998;7.614;2023-10-09T14:41:20;19.00;;;10.82;;
23670;SDS011;12012;51.998;7.614;2023-10-09T14:43:48;19.98;;;11.80;;
23670;SDS011;12012;51.998;7.614;2023-10-09T14:48:50;26.95;;;12.93;;
23670;SDS011;12012;51.998;7.614;2023-10-09T14:51:20;25.40;;;13.90;;
23670;SDS011;12012;51.998;7.614;2023-10-09T14:53:55;20.25;;;12.25;;
23670;SDS011;12012;51.998;7.614;2023-10-09T14:56:29;23.55;;;14.15;;
23670;SDS011;12012;51.998;7.614;2023-10-09T14:58:56;22.27;;;13.93;;
23670;SDS011;12012;51.998;7.614;2023-10-09T15:01:23;25.15;;;13.13;;
23670;SDS011;12012;51.998;7.614;2023-10-09T15:03:52;28.20;;;14.05;;
23670;SDS011;12012;51.998;7.614;2023-10-09T15:06:20;23.70;;;13.45;;
23670;SDS011;12012;51.998;7.614;2023-10-09T15:08:46;20.23;;;15.43;;
23670;SDS011;12012;51.998;7.614;2023-10-09T15:11:11;26.33;;;13.60;;
23670;SDS011;12012;51.998;7.614;2023-10-09T15:13:37;24.40;;;14.30;;
23670;SDS011;12012;51.998;7.614;2023-10-09T15:16:04;22.25;;;13.25;;
23670;SDS011;12012;51.998;7.614;2023-10-09T15:18:30;23.95;;;15.70;;
23670;SDS011;12012;51.998;7.614;2023-10-09T15:20:58;22.20;;;12.80;;
23670;SDS011;12012;51.998;7.614;2023-10-09T15:23:25;24.13;;;13.45;;
23670;SDS011;12012;51.998;7.614;2023-10-09T15:25:51;23.08;;;14.95;;
23670;SDS011;12012;51.998;7.614;2023-10-09T15:28:21;21.80;;;12.63;;
23670;SDS011;12012;51.998;7.614;2023-10-09T15:30:47;22.75;;;13.77;;
23670;SDS011;12012;51.998;7.614;2023-10-09T15:33:14;25.50;;;15.00;;
23670;SDS011;12012;51.998;7.614;2023-10-09T15:35:44;20.55;;;13.15;;
23670;SDS011;12012;51.998;7.614;2023-10-09T15:38:11;20.17;;;11.60;;
23670;SDS011;12012;51.998;7.614;2023-10-09T15:40:38;23.23;;;14.55;;
23670;SDS011;12012;51.998;7.614;2023-10-09T15:43:06;25.05;;;15.77;;
23670;SDS011;12012;51.998;7.614;2023-10-09T15:45:32;28.98;;;16.75;;
23670;SDS011;12012;51.998;7.614;2023-10-09T15:48:06;22.95;;;14.27;;
23670;SDS011;12012;51.998;7.614;2023-10-09T15:50:32;16.75;;;11.38;;